TimeCDT,TemperatureF,Dew PointF,Humidity,Sea Level PressureIn,VisibilityMPH,Wind Direction,Wind SpeedMPH,Gust SpeedMPH,PrecipitationIn,Events,Conditions,WindDirDegrees,DateUTC
12:52 AM,39.9,36.0,86,30.10,10.0,Calm,Calm,-,N/A,,Clear,0,2013-10-18 05:52:00
1:52 AM,39.9,36.0,86,30.10,10.0,West,3.5,-,N/A,,Clear,280,2013-10-18 06:52:00
2:52 AM,39.9,36.0,86,30.11,10.0,NW,3.5,-,N/A,,Clear,320,2013-10-18 07:52:00
3:52 AM,39.0,36.0,89,30.10,10.0,NNW,8.1,-,N/A,,Clear,330,2013-10-18 08:52:00
4:52 AM,39.9,36.0,86,30.10,10.0,North,4.6,-,N/A,,Clear,350,2013-10-18 09:52:00
5:52 AM,39.9,35.1,83,30.12,10.0,North,8.1,-,N/A,,Overcast,10,2013-10-18 10:52:00
6:52 AM,41.0,35.1,79,30.12,10.0,North,3.5,-,N/A,,Mostly Cloudy,350,2013-10-18 11:52:00
7:52 AM,39.9,36.0,86,30.18,10.0,West,4.6,-,N/A,,Overcast,270,2013-10-18 12:52:00
8:52 AM,41.0,36.0,82,30.18,9.0,North,6.9,-,0.00,Rain,Light Rain,360,2013-10-18 13:52:00
9:07 AM,39.2,35.6,87,30.16,10.0,North,6.9,-,0.01,Rain,Light Rain,10,2013-10-18 14:07:00
9:28 AM,39.2,35.6,87,30.17,10.0,North,6.9,-,0.01,Rain,Light Rain,10,2013-10-18 14:28:00
9:52 AM,37.0,36.0,96,30.17,3.0,North,4.6,-,0.05,Rain,Rain,10,2013-10-18 14:52:00
10:52 AM,37.0,36.0,96,30.17,6.0,Calm,Calm,-,0.07,Rain,Light Rain,0,2013-10-18 15:52:00
11:52 AM,37.0,36.0,96,30.20,3.0,WSW,4.6,-,0.05,Rain,Rain,240,2013-10-18 16:52:00
11:58 AM,37.4,35.6,93,30.18,3.0,Calm,Calm,-,0.00,Rain,Light Rain,0,2013-10-18 16:58:00
12:27 PM,35.6,35.6,100,30.19,2.0,WSW,3.5,-,0.07,Snow,Light Snow,250,2013-10-18 17:27:00
12:34 PM,33.8,33.8,100,30.19,1.8,West,3.5,-,0.08,Snow,Light Snow,270,2013-10-18 17:34:00
12:41 PM,33.8,33.8,100,30.19,2.5,West,3.5,-,0.09,Snow,Light Snow,260,2013-10-18 17:41:00
12:52 PM,34.0,34.0,100,30.22,1.2,WSW,4.6,-,0.11,Snow,Light Snow,240,2013-10-18 17:52:00
1:20 PM,33.8,33.8,100,30.19,2.0,SW,5.8,-,0.04,Snow,Light Snow,220,2013-10-18 18:20:00
1:27 PM,33.8,33.8,100,30.19,2.0,SW,4.6,-,0.04,Snow,Light Snow,230,2013-10-18 18:27:00
1:41 PM,33.8,33.8,100,30.18,3.0,SW,4.6,-,0.05,Rain,Light Rain,230,2013-10-18 18:41:00
1:48 PM,33.8,33.8,100,30.18,3.0,SW,4.6,-,0.05,Snow,Light Snow,230,2013-10-18 18:48:00
1:52 PM,34.0,34.0,100,30.20,3.0,WSW,3.5,-,0.06,Snow,Light Snow,240,2013-10-18 18:52:00
1:59 PM,33.8,33.8,100,30.17,2.5,WSW,3.5,-,0.00,Snow,Light Snow,250,2013-10-18 18:59:00
2:11 PM,35.6,35.6,100,30.16,4.0,West,3.5,-,0.01,Snow,Light Snow,260,2013-10-18 19:11:00
2:19 PM,35.6,35.6,100,30.16,4.0,WSW,3.5,-,0.02,Snow,Light Snow,250,2013-10-18 19:19:00
2:28 PM,35.6,35.6,100,30.17,5.0,SW,6.9,-,0.02,Rain,Light Rain,230,2013-10-18 19:28:00
2:40 PM,35.6,35.6,100,30.17,7.0,WSW,6.9,-,0.02,Rain,Light Rain,240,2013-10-18 19:40:00
2:52 PM,36.0,36.0,100,30.19,8.0,WSW,6.9,-,0.03,Rain,Light Rain,240,2013-10-18 19:52:00
2:57 PM,35.6,35.6,100,30.16,8.0,SW,5.8,-,0.00,Rain,Light Rain,230,2013-10-18 19:57:00
3:30 PM,35.6,35.6,100,30.16,8.0,SW,9.2,-,0.01,Rain,Light Rain,220,2013-10-18 20:30:00
3:52 PM,37.0,37.0,100,30.18,8.0,SW,9.2,-,0.02,Rain,Light Rain,230,2013-10-18 20:52:00
4:00 PM,37.4,37.4,100,30.15,10.0,WSW,8.1,-,0.00,Rain,Light Rain,240,2013-10-18 21:00:00
4:31 PM,37.4,37.4,100,30.14,10.0,WSW,5.8,-,0.00,Rain,Light Rain,240,2013-10-18 21:31:00
4:52 PM,37.0,37.0,100,30.16,10.0,WSW,5.8,-,0.00,,Overcast,240,2013-10-18 21:52:00
5:52 PM,37.9,37.9,100,30.15,10.0,WSW,5.8,-,N/A,,Overcast,240,2013-10-18 22:52:00
6:52 PM,37.0,37.0,100,30.15,10.0,SW,9.2,-,N/A,,Overcast,230,2013-10-18 23:52:00
7:52 PM,37.0,37.0,100,30.16,10.0,SW,8.1,-,N/A,,Mostly Cloudy,230,2013-10-19 00:52:00
8:52 PM,36.0,36.0,100,30.16,10.0,WSW,8.1,-,N/A,,Overcast,240,2013-10-19 01:52:00
9:52 PM,37.0,36.0,96,30.16,10.0,SW,8.1,-,N/A,,Overcast,230,2013-10-19 02:52:00
10:52 PM,34.0,34.0,100,30.16,9.0,SW,5.8,-,N/A,,Mostly Cloudy,220,2013-10-19 03:52:00
11:06 PM,33.8,33.8,100,30.13,9.0,SW,4.6,-,N/A,,Scattered Clouds,220,2013-10-19 04:06:00
11:52 PM,34.0,34.0,100,30.14,9.0,SW,6.9,-,N/A,,Clear,220,2013-10-19 04:52:00